Alexandria, Tennessee
Current Conditions -  °F | °C
As of 11:53 AM on Friday 31 Oct 2014 (Local Time) from KBNA Reporting Station
Overcast Overcast  
Wind Chill: 51°   Ceiling: 2400
Heat Index: 51°   Visibility: 10mi
Dew Point: 45°   Wind: 7mph
Humidity: 80%   Direction: 330°NNW
Pressure: 30.03"   Gusts: NA
Location:  36.08°N, 86.03°W
Report Text: KBNA 311653Z 33006KT 10SM BKN024 OVC030 11/07 A3003 RMK AO2 SLP168 T01060072
Loading
Personal Weather Stations






























Interactive Weather Map
Tropical Storm Tracking
New forecast layout! Learn more

10-Day Weather Forecast

Advertisements
Track Severe Weather on mobile